Terminal Aerodrome Forecast
Issued by NWS Upton, NY

Home | Current Version | Previous Version | Text Only | Print | Product List | Glossary On
Versions: 1 2 3 4 5 6 7 8 9 10 11 12 13 14 15 16 17 18 19 20 21 22 23 24 25 26 27 28 29 30 31 32 33
000
FTUS41 KOKX 291546 AAC
TAFJFK
TAF AMD
KJFK 291546Z 2916/3018 10014G20KT P6SM FEW040 BKN070
     FM291700 10011KT P6SM OVC060
     FM292200 09008KT P6SM -SHRA FEW025 OVC050
     FM300300 05007KT P6SM -SHRA SCT025 OVC040
     FM300500 03007KT P6SM BKN060
     FM301100 02007KT P6SM SCT060
     FM301300 05009KT P6SM SCT060
     FM301600 10010KT P6SM SCT060=

USA.gov is the U.S. government's official web portal to all federal, state and local government web resources and services.